GCWP weather

Gold Coast Water Police Helicopter Landing Site
Gold Coast, Queensland, Australia

Public forecast

Using degrees Celsius for public forecast. Weather courtesy of forecast.io.

Closest aviation weather report (METAR) to Gold Coast Water Police Helicopter Landing Site

Closest report is Gold Coast Airport, 12.4 nm (22.9 km) SSE. Retrieved 2020/08/03 18:00 UTC (22 minutes ago):

YBCG 031800Z AUTO 24002KT 9999 // OVC079 12/12 Q1016 RF000/0000

Closest aviation forecast (TAF) to Gold Coast Water Police Helicopter Landing Site

Closest forecast is Gold Coast Airport, 12.4 nm (22.9 km) SSE. Retrieved 2020/08/03 18:00 UTC (22 minutes ago):

TAF YBCG 031704Z 0318/0418 23005KT CAVOK FM040200 01012KT CAVOK FM041000 23005KT CAVOK